
Distance (Route):
Temperature : 24.0°C
Humidity : 34.0%
Pressure : 0hPa| Receiver | Frames | First received | Last received |
|---|---|---|---|
| LZ4TU-5 | 163 | 2026-09-05 23:21:02 | 2026-09-06 01:07:05 |
| Receiver | Date | Latitude | Longitude | Direction | Speed | Altitude | Climb | Temperature | Humidity | Pressure | Voltage | Killtimer | Uptime | BKT | XDATA |
|---|---|---|---|---|---|---|---|---|---|---|---|---|---|---|---|
| LZ4TU-5 | 2026-09-06 01:07:05 | 43.92769 | 23.61780 | 125° | 53km/h | 493m | -11.3m/s | 24.0°C | 34.0% | 0hPa | 0V | 00:00:00 | 00:00:00 | 00:00:00 | |
| LZ4TU-5 | 2026-09-06 01:07:01 | 43.92800 | 23.61721 | 128° | 55km/h | 539m | -11.0m/s | 24.2°C | 32.4% | 0hPa | 0V | 00:00:00 | 00:00:00 | 00:00:00 | |
| LZ4TU-5 | 2026-09-06 01:06:56 | 43.92840 | 23.61647 | 129° | 55km/h | 595m | -11.4m/s | 24.6°C | 32.7% | 0hPa | 0V | 00:00:00 | 00:00:00 | 00:00:00 | |
| LZ4TU-5 | 2026-09-06 01:06:52 | 43.92875 | 23.61588 | 132° | 51km/h | 641m | -11.6m/s | 24.6°C | 35.1% | 0hPa | 0V | 00:00:00 | 00:00:00 | 00:00:00 | |
| LZ4TU-5 | 2026-09-06 01:06:47 | 43.92922 | 23.61519 | 136° | 49km/h | 700m | -11.3m/s | 24.2°C | 36.3% | 0hPa | 0V | 00:00:00 | 00:00:00 | 00:00:00 | |
| LZ4TU-5 | 2026-09-06 01:06:43 | 43.92961 | 23.61464 | 139° | 49km/h | 746m | -11.8m/s | 23.9°C | 37.0% | 0hPa | 0V | 00:00:00 | 00:00:00 | 00:00:00 | |
| LZ4TU-5 | 2026-09-06 01:06:34 | 43.93045 | 23.61366 | 145° | 46km/h | 843m | -11.8m/s | 23.3°C | 38.6% | 0hPa | 0V | 00:00:00 | 00:00:00 | 00:00:00 | |
| LZ4TU-5 | 2026-09-06 01:06:30 | 43.93083 | 23.61330 | 147° | 47km/h | 893m | -11.8m/s | 23.3°C | 38.3% | 0hPa | 0V | 00:00:00 | 00:00:00 | 00:00:00 | |
| LZ4TU-5 | 2026-09-06 01:06:25 | 43.93134 | 23.61284 | 149° | 49km/h | 954m | -11.4m/s | 22.9°C | 39.4% | 0hPa | 0V | 00:00:00 | 00:00:00 | 00:00:00 | |
| LZ4TU-5 | 2026-09-06 01:06:20 | 43.93188 | 23.61239 | 150° | 51km/h | 1013m | -11.5m/s | 22.5°C | 39.9% | 0hPa | 0V | 00:00:00 | 00:00:00 | 00:00:00 | |
| LZ4TU-5 | 2026-09-06 01:06:15 | 43.93248 | 23.61192 | 152° | 57km/h | 1070m | -11.9m/s | 22.1°C | 40.1% | 0hPa | 0V | 00:00:00 | 00:00:00 | 00:00:00 | |
| LZ4TU-5 | 2026-09-06 01:06:10 | 43.93310 | 23.61140 | 150° | 57km/h | 1123m | -11.6m/s | 21.7°C | 41.9% | 0hPa | 0V | 00:00:00 | 00:00:00 | 00:00:00 | |
| LZ4TU-5 | 2026-09-06 01:06:05 | 43.93373 | 23.61086 | 147° | 55km/h | 1174m | -12.3m/s | 21.3°C | 43.4% | 0hPa | 0V | 00:00:00 | 00:00:00 | 00:00:00 | |
| LZ4TU-5 | 2026-09-06 01:06:00 | 43.93428 | 23.61033 | 145° | 51km/h | 1237m | -11.9m/s | 20.9°C | 43.2% | 0hPa | 0V | 00:00:00 | 00:00:00 | 00:00:00 | |
| LZ4TU-5 | 2026-09-06 01:05:55 | 43.93478 | 23.60984 | 144° | 47km/h | 1298m | -11.1m/s | 20.4°C | 43.7% | 0hPa | 0V | 00:00:00 | 00:00:00 | 00:00:00 | |
| LZ4TU-5 | 2026-09-06 01:05:51 | 43.93517 | 23.60943 | 142° | 47km/h | 1348m | -11.9m/s | 20.0°C | 44.3% | 0hPa | 0V | 00:00:00 | 00:00:00 | 00:00:00 | |
| LZ4TU-5 | 2026-09-06 01:05:46 | 43.93563 | 23.60889 | 138° | 49km/h | 1411m | -11.8m/s | 19.5°C | 0% | 0hPa | 0V | 00:00:00 | 00:00:00 | 00:00:00 | |
| LZ4TU-5 | 2026-09-06 00:57:27 | 43.95864 | 23.51459 | 123° | 88km/h | 7628m | -13.6m/s | -21.1°C | 36.9% | 0hPa | 0V | 00:00:00 | 00:00:00 | 00:00:00 | |
| LZ4TU-5 | 2026-09-06 00:57:23 | 43.95912 | 23.51352 | 125° | 93km/h | 7677m | -13.3m/s | -21.5°C | 34.1% | 0hPa | 0V | 00:00:00 | 00:00:00 | 00:00:00 | |
| LZ4TU-5 | 2026-09-06 00:57:18 | 43.95982 | 23.51208 | 125° | 100km/h | 7734m | -14.7m/s | -21.2°C | 29.6% | 0hPa | 0V | 00:00:00 | 00:00:00 | 00:00:00 | |
| LZ4TU-5 | 2026-09-06 00:55:40 | 43.97181 | 23.48519 | 131° | 95km/h | 9144m | -15.3m/s | -31.6°C | 16.0% | 0hPa | 0V | 00:00:00 | 00:00:00 | 00:00:00 | |
| LZ4TU-5 | 2026-09-06 00:55:35 | 43.97260 | 23.48392 | 131° | 97km/h | 9224m | -15.3m/s | -32.1°C | 16.2% | 0hPa | 0V | 00:00:00 | 00:00:00 | 00:00:00 | |
| LZ4TU-5 | 2026-09-06 00:48:56 | 44.01490 | 23.37176 | 112° | 53km/h | 17702m | -30.9m/s | -58.8°C | 0.0% | 0hPa | 0V | 00:00:00 | 00:00:00 | 00:00:00 | |
| LZ4TU-5 | 2026-09-06 00:48:51 | 44.01518 | 23.37101 | 121° | 42km/h | 17858m | -29.8m/s | -59.1°C | 0.0% | 0hPa | 0V | 00:00:00 | 00:00:00 | 00:00:00 | |
| LZ4TU-5 | 2026-09-06 00:46:57 | 44.01516 | 23.35842 | 120° | 24km/h | 21141m | -29.3m/s | -55.7°C | 0.0% | 0hPa | 0V | 00:00:00 | 00:00:00 | 00:00:00 | |
| LZ4TU-5 | 2026-09-06 00:46:52 | 44.01534 | 23.35812 | 132° | 20km/h | 21282m | -31.1m/s | -55.8°C | 0.0% | 0hPa | 0V | 00:00:00 | 00:00:00 | 00:00:00 | |
| LZ4TU-5 | 2026-09-06 00:44:48 | 44.01443 | 23.35344 | 126° | 18km/h | 25136m | -34.7m/s | -50.7°C | 0.0% | 0hPa | 0V | 00:00:00 | 00:00:00 | 00:00:00 | |
| LZ4TU-5 | 2026-09-06 00:44:43 | 44.01464 | 23.35319 | 156° | 26km/h | 25298m | -33.8m/s | -50.5°C | 0.0% | 0hPa | 0V | 00:00:00 | 00:00:00 | 00:00:00 | |
| LZ4TU-5 | 2026-09-06 00:38:55 | 44.01388 | 23.34589 | 60° | 40km/h | 30116m | 5.8m/s | -44.3°C | 0.0% | 0hPa | 0V | 00:00:00 | 00:00:00 | 00:00:00 | |
| LZ4TU-5 | 2026-09-06 00:34:50 | 44.01312 | 23.34234 | 113° | 9km/h | 28422m | 6.7m/s | -47.0°C | 0.0% | 0hPa | 0V | 00:00:00 | 00:00:00 | 00:00:00 | |
| LZ4TU-5 | 2026-09-06 00:34:31 | 44.01323 | 23.34180 | 91° | 5km/h | 28299m | 6.6m/s | -47.2°C | 0.0% | 0hPa | 0V | 00:00:00 | 00:00:00 | 00:00:00 | |
| LZ4TU-5 | 2026-09-06 00:32:15 | 44.00914 | 23.34109 | 325° | 18km/h | 27372m | 6.5m/s | -47.5°C | 0.0% | 0hPa | 0V | 00:00:00 | 00:00:00 | 00:00:00 | |
| LZ4TU-5 | 2026-09-06 00:32:10 | 44.00910 | 23.34123 | 309° | 7km/h | 27337m | 6.5m/s | -47.7°C | 0.0% | 0hPa | 0V | 00:00:00 | 00:00:00 | 00:00:00 | |
| LZ4TU-5 | 2026-09-06 00:30:31 | 44.00868 | 23.34298 | 111° | 9km/h | 26661m | 8.0m/s | -48.6°C | 0.0% | 0hPa | 0V | 00:00:00 | 00:00:00 | 00:00:00 | |
| LZ4TU-5 | 2026-09-06 00:30:26 | 44.00885 | 23.34285 | 202° | 11km/h | 26626m | 7.2m/s | -48.6°C | 0.0% | 0hPa | 0V | 00:00:00 | 00:00:00 | 00:00:00 | |
| LZ4TU-5 | 2026-09-06 00:28:37 | 44.01096 | 23.34298 | 147° | 11km/h | 25916m | 6.2m/s | -48.3°C | 0.0% | 0hPa | 0V | 00:00:00 | 00:00:00 | 00:00:00 | |
| LZ4TU-5 | 2026-09-06 00:28:33 | 44.01107 | 23.34285 | 128° | 20km/h | 25885m | 7.1m/s | -48.3°C | 0.0% | 0hPa | 0V | 00:00:00 | 00:00:00 | 00:00:00 | |
| LZ4TU-5 | 2026-09-06 00:26:59 | 44.01083 | 23.34132 | 99° | 29km/h | 25290m | 6.2m/s | -51.9°C | 0.0% | 0hPa | 0V | 00:00:00 | 00:00:00 | 00:00:00 | |
| LZ4TU-5 | 2026-09-06 00:26:54 | 44.01085 | 23.34104 | 184° | 16km/h | 25261m | 5.7m/s | -51.9°C | 0.0% | 0hPa | 0V | 00:00:00 | 00:00:00 | 00:00:00 | |
| LZ4TU-5 | 2026-09-06 00:25:19 | 44.00945 | 23.33812 | 78° | 27km/h | 24620m | 6.7m/s | -52.5°C | 0.0% | 0hPa | 0V | 00:00:00 | 00:00:00 | 00:00:00 | |
| LZ4TU-5 | 2026-09-06 00:25:14 | 44.00938 | 23.33794 | 3° | 9km/h | 24586m | 7.6m/s | -52.7°C | 0% | 0hPa | 0V | 00:00:00 | 00:00:00 | 00:00:00 | |
| LZ4TU-5 | 2026-09-06 00:23:40 | 44.00630 | 23.33748 | 92° | 9km/h | 23985m | 4.5m/s | -52.8°C | 0.0% | 0hPa | 0V | 00:00:00 | 00:00:00 | 00:00:00 | |
| LZ4TU-5 | 2026-09-06 00:23:35 | 44.00614 | 23.33761 | 301° | 22km/h | 23955m | 7.8m/s | -52.9°C | 0.0% | 0hPa | 0V | 00:00:00 | 00:00:00 | 00:00:00 | |
| LZ4TU-5 | 2026-09-06 00:22:11 | 44.00621 | 23.33731 | 346° | 5km/h | 23436m | 5.7m/s | -55.1°C | 0.0% | 0hPa | 0V | 00:00:00 | 00:00:00 | 00:00:00 | |
| LZ4TU-5 | 2026-09-06 00:22:06 | 44.00618 | 23.33738 | 210° | 15km/h | 23407m | 5.8m/s | -55.0°C | 0.0% | 0hPa | 0V | 00:00:00 | 00:00:00 | 00:00:00 | |
| LZ4TU-5 | 2026-09-06 00:21:57 | 44.00628 | 23.33754 | 57° | 9km/h | 23353m | 5.6m/s | -54.9°C | 0.0% | 0hPa | 0V | 00:00:00 | 00:00:00 | 00:00:00 | |
| LZ4TU-5 | 2026-09-06 00:21:53 | 44.00633 | 23.33755 | 194° | 18km/h | 23329m | 7.7m/s | -54.7°C | 0.0% | 0hPa | 0V | 00:00:00 | 00:00:00 | 00:00:00 | |
| LZ4TU-5 | 2026-09-06 00:20:25 | 44.00636 | 23.33218 | 52° | 47km/h | 22774m | 7.0m/s | -53.9°C | 0.0% | 0hPa | 0V | 00:00:00 | 00:00:00 | 00:00:00 | |
| LZ4TU-5 | 2026-09-06 00:20:20 | 44.00603 | 23.33168 | 52° | 20km/h | 22741m | 6.2m/s | -53.8°C | 0.0% | 0hPa | 0V | 00:00:00 | 00:00:00 | 00:00:00 | |
| LZ4TU-5 | 2026-09-06 00:20:11 | 44.00578 | 23.33109 | 56° | 33km/h | 22684m | 6.2m/s | -53.9°C | 0.0% | 0hPa | 0V | 00:00:00 | 00:00:00 | 00:00:00 | |
| LZ4TU-5 | 2026-09-06 00:20:06 | 44.00563 | 23.33093 | 344° | 9km/h | 22650m | 6.7m/s | -54.0°C | 0.0% | 0hPa | 0V | 00:00:00 | 00:00:00 | 00:00:00 | |
| LZ4TU-5 | 2026-09-06 00:18:39 | 44.00500 | 23.32530 | 93° | 33km/h | 22105m | 6.8m/s | -56.2°C | 0.0% | 0hPa | 0V | 00:00:00 | 00:00:00 | 00:00:00 | |
| LZ4TU-5 | 2026-09-06 00:18:34 | 44.00495 | 23.32479 | 66° | 27km/h | 22073m | 8.4m/s | -56.3°C | 0.0% | 0hPa | 0V | 00:00:00 | 00:00:00 | 00:00:00 | |
| LZ4TU-5 | 2026-09-06 00:18:25 | 44.00476 | 23.32406 | 78° | 20km/h | 22016m | 6.0m/s | -56.4°C | 0.0% | 0hPa | 0V | 00:00:00 | 00:00:00 | 00:00:00 | |
| LZ4TU-5 | 2026-09-06 00:18:20 | 44.00461 | 23.32358 | 75° | 31km/h | 21986m | 5.6m/s | -56.5°C | 0.0% | 0hPa | 0V | 00:00:00 | 00:00:00 | 00:00:00 | |
| LZ4TU-5 | 2026-09-06 00:16:52 | 44.00428 | 23.32342 | 164° | 13km/h | 21433m | 4.1m/s | -54.0°C | 0.0% | 0hPa | 0V | 00:00:00 | 00:00:00 | 00:00:00 | |
| LZ4TU-5 | 2026-09-06 00:16:47 | 44.00432 | 23.32328 | 72° | 13km/h | 21406m | 4.7m/s | -53.9°C | 0% | 0hPa | 0V | 00:00:00 | 00:00:00 | 00:00:00 | |
| LZ4TU-5 | 2026-09-06 00:16:38 | 44.00451 | 23.32300 | 106° | 11km/h | 21353m | 7.0m/s | -54.1°C | 0.0% | 0hPa | 0V | 00:00:00 | 00:00:00 | 00:00:00 | |
| LZ4TU-5 | 2026-09-06 00:16:34 | 44.00455 | 23.32284 | 121° | 13km/h | 21330m | 6.1m/s | -54.1°C | 0.0% | 0hPa | 0V | 00:00:00 | 00:00:00 | 00:00:00 | |
| LZ4TU-5 | 2026-09-06 00:15:04 | 44.00595 | 23.31625 | 67° | 26km/h | 20808m | 4.4m/s | -56.2°C | 0.0% | 0hPa | 0V | 00:00:00 | 00:00:00 | 00:00:00 | |
| LZ4TU-5 | 2026-09-06 00:14:59 | 44.00596 | 23.31584 | 101° | 18km/h | 20778m | 6.6m/s | -56.1°C | 0.0% | 0hPa | 0V | 00:00:00 | 00:00:00 | 00:00:00 | |
| LZ4TU-5 | 2026-09-06 00:14:55 | 44.00591 | 23.31558 | 72° | 16km/h | 20751m | 5.7m/s | -56.3°C | 0.0% | 0hPa | 0V | 00:00:00 | 00:00:00 | 00:00:00 | |
| LZ4TU-5 | 2026-09-06 00:14:45 | 44.00580 | 23.31489 | 92° | 18km/h | 20696m | 6.4m/s | -57.3°C | 0.0% | 0hPa | 0V | 00:00:00 | 00:00:00 | 00:00:00 | |
| LZ4TU-5 | 2026-09-06 00:14:40 | 44.00574 | 23.31458 | 78° | 31km/h | 20666m | 6.5m/s | -57.4°C | 0% | 0hPa | 0V | 00:00:00 | 00:00:00 | 00:00:00 | |
| LZ4TU-5 | 2026-09-06 00:13:13 | 44.00506 | 23.30643 | 107° | 24km/h | 20135m | 6.0m/s | -57.2°C | 0.0% | 0hPa | 0V | 00:00:00 | 00:00:00 | 00:00:00 | |
| LZ4TU-5 | 2026-09-06 00:13:08 | 44.00510 | 23.30589 | 92° | 38km/h | 20108m | 6.6m/s | -57.1°C | 0.0% | 0hPa | 0V | 00:00:00 | 00:00:00 | 00:00:00 | |
| LZ4TU-5 | 2026-09-06 00:12:59 | 44.00538 | 23.30486 | 95° | 37km/h | 20054m | 6.5m/s | -57.2°C | 0.0% | 0hPa | 0V | 00:00:00 | 00:00:00 | 00:00:00 | |
| LZ4TU-5 | 2026-09-06 00:12:55 | 44.00545 | 23.30435 | 109° | 35km/h | 20031m | 6.5m/s | -57.1°C | 0.0% | 0hPa | 0V | 00:00:00 | 00:00:00 | 00:00:00 | |
| LZ4TU-5 | 2026-09-06 00:11:37 | 44.00550 | 23.29378 | 73° | 42km/h | 19574m | 6.7m/s | -57.0°C | 0.0% | 0hPa | 0V | 00:00:00 | 00:00:00 | 00:00:00 | |
| LZ4TU-5 | 2026-09-06 00:11:32 | 44.00535 | 23.29302 | 85° | 44km/h | 19544m | 8.1m/s | -57.5°C | 0.0% | 0hPa | 0V | 00:00:00 | 00:00:00 | 00:00:00 | |
| LZ4TU-5 | 2026-09-06 00:11:23 | 44.00517 | 23.29153 | 75° | 53km/h | 19493m | 5.3m/s | -57.5°C | 0.0% | 0hPa | 0V | 00:00:00 | 00:00:00 | 00:00:00 | |
| LZ4TU-5 | 2026-09-06 00:11:18 | 44.00511 | 23.29068 | 81° | 49km/h | 19465m | 5.3m/s | -57.5°C | 0.0% | 0hPa | 0V | 00:00:00 | 00:00:00 | 00:00:00 | |
| LZ4TU-5 | 2026-09-06 00:09:22 | 44.00413 | 23.27614 | 76° | 42km/h | 18814m | 6.5m/s | -57.1°C | 0.2% | 0hPa | 0V | 00:00:00 | 00:00:00 | 00:00:00 | |
| LZ4TU-5 | 2026-09-06 00:09:18 | 44.00395 | 23.27540 | 87° | 46km/h | 18786m | 5.2m/s | -57.1°C | 0.1% | 0hPa | 0V | 00:00:00 | 00:00:00 | 00:00:00 | |
| LZ4TU-5 | 2026-09-06 00:09:08 | 44.00375 | 23.27422 | 66° | 44km/h | 18741m | 4.4m/s | -56.8°C | 0.2% | 0hPa | 0V | 00:00:00 | 00:00:00 | 00:00:00 | |
| LZ4TU-5 | 2026-09-06 00:09:03 | 44.00377 | 23.27358 | 90° | 31km/h | 18711m | 5.2m/s | -56.7°C | 0.1% | 0hPa | 0V | 00:00:00 | 00:00:00 | 00:00:00 | |
| LZ4TU-5 | 2026-09-06 00:07:30 | 44.00214 | 23.26430 | 124° | 16km/h | 18203m | 7.6m/s | -58.8°C | 0.5% | 0hPa | 0V | 00:00:00 | 00:00:00 | 00:00:00 | |
| LZ4TU-5 | 2026-09-06 00:07:22 | 44.00229 | 23.26356 | 67° | 24km/h | 18155m | 4.9m/s | -58.5°C | 0.5% | 0hPa | 0V | 00:00:00 | 00:00:00 | 00:00:00 | |
| LZ4TU-5 | 2026-09-06 00:07:18 | 44.00231 | 23.26325 | 111° | 24km/h | 18126m | 7.1m/s | -58.7°C | 0.6% | 0hPa | 0V | 00:00:00 | 00:00:00 | 00:00:00 | |
| LZ4TU-5 | 2026-09-06 00:05:53 | 44.00742 | 23.25015 | 115° | 57km/h | 17663m | 5.4m/s | -58.8°C | 1.3% | 0hPa | 0V | 00:00:00 | 00:00:00 | 00:00:00 | |
| LZ4TU-5 | 2026-09-06 00:05:50 | 44.00778 | 23.24899 | 114° | 75km/h | 17633m | 4.8m/s | -58.9°C | 1.4% | 0hPa | 0V | 00:00:00 | 00:00:00 | 00:00:00 | |
| LZ4TU-5 | 2026-09-06 00:05:39 | 44.00829 | 23.24708 | 112° | 73km/h | 17586m | 5.1m/s | -59.0°C | 1.6% | 0hPa | 0V | 00:00:00 | 00:00:00 | 00:00:00 | |
| LZ4TU-5 | 2026-09-06 00:05:34 | 44.00846 | 23.24586 | 92° | 68km/h | 17557m | 5.0m/s | -59.1°C | 1.6% | 0hPa | 0V | 00:00:00 | 00:00:00 | 00:00:00 | |
| LZ4TU-5 | 2026-09-06 00:04:08 | 44.00987 | 23.22968 | 92° | 58km/h | 17083m | 5.5m/s | -59.2°C | 2.8% | 0hPa | 0V | 00:00:00 | 00:00:00 | 00:00:00 | |
| LZ4TU-5 | 2026-09-06 00:04:03 | 44.00992 | 23.22872 | 109° | 53km/h | 17057m | 6.0m/s | -59.0°C | 2.8% | 0hPa | 0V | 00:00:00 | 00:00:00 | 00:00:00 | |
| LZ4TU-5 | 2026-09-06 00:03:55 | 44.01017 | 23.22695 | 100° | 51km/h | 17009m | 6.5m/s | -58.8°C | 2.9% | 0hPa | 0V | 00:00:00 | 00:00:00 | 00:00:00 | |
| LZ4TU-5 | 2026-09-06 00:03:50 | 44.01038 | 23.22624 | 118° | 58km/h | 16986m | 5.9m/s | -58.7°C | 3.0% | 0hPa | 0V | 00:00:00 | 00:00:00 | 00:00:00 | |
| LZ4TU-5 | 2026-09-06 00:02:32 | 44.01376 | 23.20951 | 98° | 68km/h | 16538m | 5.5m/s | -60.6°C | 4.0% | 0hPa | 0V | 00:00:00 | 00:00:00 | 00:00:00 | |
| LZ4TU-5 | 2026-09-06 00:02:26 | 44.01389 | 23.20840 | 100° | 71km/h | 16510m | 5.1m/s | -60.4°C | 4.0% | 0hPa | 0V | 00:00:00 | 00:00:00 | 00:00:00 | |
| LZ4TU-5 | 2026-09-06 00:02:17 | 44.01421 | 23.20617 | 100° | 57km/h | 16463m | 5.0m/s | -60.5°C | 4.0% | 0hPa | 0V | 00:00:00 | 00:00:00 | 00:00:00 | |
| LZ4TU-5 | 2026-09-06 00:02:11 | 44.01439 | 23.20492 | 107° | 80km/h | 16436m | 5.1m/s | -60.3°C | 0% | 0hPa | 0V | 00:00:00 | 00:00:00 | 00:00:00 | |
| LZ4TU-5 | 2026-09-06 00:00:46 | 44.01775 | 23.18139 | 104° | 84km/h | 15974m | 5.1m/s | -59.5°C | 5.2% | 0hPa | 0V | 00:00:00 | 00:00:00 | 00:00:00 | |
| LZ4TU-5 | 2026-09-06 00:00:44 | 44.01789 | 23.18027 | 105° | 75km/h | 15950m | 5.9m/s | -59.5°C | 5.3% | 0hPa | 0V | 00:00:00 | 00:00:00 | 00:00:00 | |
| LZ4TU-5 | 2026-09-06 00:00:31 | 44.01840 | 23.17788 | 107° | 84km/h | 15901m | 5.9m/s | -59.7°C | 5.5% | 0hPa | 0V | 00:00:00 | 00:00:00 | 00:00:00 | |
| LZ4TU-5 | 2026-09-06 00:00:26 | 44.01868 | 23.17643 | 107° | 82km/h | 15872m | 6.2m/s | -59.6°C | 5.6% | 0hPa | 0V | 00:00:00 | 00:00:00 | 00:00:00 | |
| LZ4TU-5 | 2026-09-05 23:58:45 | 44.02150 | 23.14684 | 92° | 99km/h | 15344m | 4.5m/s | -60.8°C | 8.3% | 0hPa | 0V | 00:00:00 | 00:00:00 | 00:00:00 | |
| LZ4TU-5 | 2026-09-05 23:58:40 | 44.02155 | 23.14528 | 95° | 78km/h | 15320m | 5.4m/s | -60.7°C | 8.5% | 0hPa | 0V | 00:00:00 | 00:00:00 | 00:00:00 | |
| LZ4TU-5 | 2026-09-05 23:58:31 | 44.02164 | 23.14254 | 88° | 86km/h | 15274m | 5.1m/s | -60.4°C | 8.9% | 0hPa | 0V | 00:00:00 | 00:00:00 | 00:00:00 | |
| LZ4TU-5 | 2026-09-05 23:58:26 | 44.02172 | 23.14110 | 98° | 88km/h | 15249m | 5.2m/s | -60.3°C | 9.2% | 0hPa | 0V | 00:00:00 | 00:00:00 | 00:00:00 | |
| LZ4TU-5 | 2026-09-05 23:57:00 | 44.02194 | 23.11600 | 99° | 80km/h | 14817m | 5.1m/s | -60.2°C | 17.6% | 0hPa | 0V | 00:00:00 | 00:00:00 | 00:00:00 | |
| LZ4TU-5 | 2026-09-05 23:56:56 | 44.02203 | 23.11497 | 91° | 71km/h | 14796m | 3.7m/s | -60.1°C | 18.2% | 0hPa | 0V | 00:00:00 | 00:00:00 | 00:00:00 | |
| LZ4TU-5 | 2026-09-05 23:56:48 | 44.02216 | 23.11219 | 104° | 82km/h | 14740m | 6.6m/s | -59.7°C | 20.0% | 0hPa | 0V | 00:00:00 | 00:00:00 | 00:00:00 | |
| LZ4TU-5 | 2026-09-05 23:56:42 | 44.02234 | 23.11094 | 96° | 71km/h | 14713m | 4.3m/s | -59.5°C | 20.6% | 0hPa | 0V | 00:00:00 | 00:00:00 | 00:00:00 | |
| LZ4TU-5 | 2026-09-05 23:55:13 | 44.03002 | 23.08329 | 110° | 130km/h | 14195m | 5.0m/s | -67.2°C | 32.6% | 0hPa | 0V | 00:00:00 | 00:00:00 | 00:00:00 | |
| LZ4TU-5 | 2026-09-05 23:55:08 | 44.03046 | 23.08115 | 108° | 126km/h | 14167m | 6.1m/s | -67.2°C | 32.5% | 0hPa | 0V | 00:00:00 | 00:00:00 | 00:00:00 | |
| LZ4TU-5 | 2026-09-05 23:54:59 | 44.03142 | 23.07747 | 105° | 113km/h | 14118m | 5.0m/s | -66.9°C | 32.1% | 0hPa | 0V | 00:00:00 | 00:00:00 | 00:00:00 | |
| LZ4TU-5 | 2026-09-05 23:54:55 | 44.03169 | 23.07580 | 105° | 137km/h | 14097m | 5.1m/s | -66.8°C | 31.8% | 0hPa | 0V | 00:00:00 | 00:00:00 | 00:00:00 | |
| LZ4TU-5 | 2026-09-05 23:53:27 | 44.03534 | 23.04545 | 103° | 89km/h | 13505m | 8.8m/s | -63.1°C | 24.9% | 0hPa | 0V | 00:00:00 | 00:00:00 | 00:00:00 | |
| LZ4TU-5 | 2026-09-05 23:53:22 | 44.03549 | 23.04420 | 107° | 60km/h | 13478m | 4.1m/s | -62.9°C | 0% | 0hPa | 0V | 00:00:00 | 00:00:00 | 00:00:00 | |
| LZ4TU-5 | 2026-09-05 23:53:14 | 44.03580 | 23.04190 | 102° | 84km/h | 13433m | 7.7m/s | -62.5°C | 23.5% | 0hPa | 0V | 00:00:00 | 00:00:00 | 00:00:00 | |
| LZ4TU-5 | 2026-09-05 23:53:09 | 44.03604 | 23.04043 | 104° | 89km/h | 13415m | 4.4m/s | -62.4°C | 23.1% | 0hPa | 0V | 00:00:00 | 00:00:00 | 00:00:00 | |
| LZ4TU-5 | 2026-09-05 23:51:44 | 44.04123 | 23.02173 | 122° | 91km/h | 12826m | 6.2m/s | -57.7°C | 16.7% | 0hPa | 0V | 00:00:00 | 00:00:00 | 00:00:00 | |
| LZ4TU-5 | 2026-09-05 23:51:40 | 44.04188 | 23.02045 | 118° | 99km/h | 12798m | 7.8m/s | -57.4°C | 16.7% | 0hPa | 0V | 00:00:00 | 00:00:00 | 00:00:00 | |
| LZ4TU-5 | 2026-09-05 23:51:34 | 44.04257 | 23.01936 | 142° | 97km/h | 12745m | 8.6m/s | -57.1°C | 16.8% | 0hPa | 0V | 00:00:00 | 00:00:00 | 00:00:00 | |
| LZ4TU-5 | 2026-09-05 23:51:25 | 44.04397 | 23.01703 | 109° | 88km/h | 12684m | 5.1m/s | -56.5°C | 17.0% | 0hPa | 0V | 00:00:00 | 00:00:00 | 00:00:00 | |
| LZ4TU-5 | 2026-09-05 23:51:20 | 44.04440 | 23.01584 | 133° | 110km/h | 12650m | 11.7m/s | -56.2°C | 0% | 0hPa | 0V | 00:00:00 | 00:00:00 | 00:00:00 | |
| LZ4TU-5 | 2026-09-05 23:49:53 | 44.05966 | 22.99202 | 124° | 102km/h | 12110m | 6.3m/s | -54.8°C | 26.0% | 0hPa | 0V | 00:00:00 | 00:00:00 | 00:00:00 | |
| LZ4TU-5 | 2026-09-05 23:49:48 | 44.06053 | 22.99065 | 133° | 119km/h | 12082m | 5.6m/s | -54.8°C | 26.9% | 0hPa | 0V | 00:00:00 | 00:00:00 | 00:00:00 | |
| LZ4TU-5 | 2026-09-05 23:49:39 | 44.06220 | 22.98779 | 136° | 108km/h | 12033m | 6.5m/s | -55.0°C | 28.9% | 0hPa | 0V | 00:00:00 | 00:00:00 | 00:00:00 | |
| LZ4TU-5 | 2026-09-05 23:49:35 | 44.06292 | 22.98670 | 129° | 110km/h | 12011m | 6.0m/s | -54.9°C | 29.7% | 0hPa | 0V | 00:00:00 | 00:00:00 | 00:00:00 | |
| LZ4TU-5 | 2026-09-05 23:48:01 | 44.07992 | 22.95731 | 136° | 126km/h | 11447m | 7.6m/s | -52.0°C | 33.3% | 0hPa | 0V | 00:00:00 | 00:00:00 | 00:00:00 | |
| LZ4TU-5 | 2026-09-05 23:47:56 | 44.08090 | 22.95577 | 131° | 115km/h | 11416m | 5.2m/s | -51.7°C | 32.9% | 0hPa | 0V | 00:00:00 | 00:00:00 | 00:00:00 | |
| LZ4TU-5 | 2026-09-05 23:47:48 | 44.08242 | 22.95328 | 133° | 110km/h | 11371m | 5.3m/s | -51.4°C | 32.1% | 0hPa | 0V | 00:00:00 | 00:00:00 | 00:00:00 | |
| LZ4TU-5 | 2026-09-05 23:47:43 | 44.08334 | 22.95176 | 135° | 104km/h | 11340m | 8.8m/s | -51.1°C | 31.5% | 0hPa | 0V | 00:00:00 | 00:00:00 | 00:00:00 | |
| LZ4TU-5 | 2026-09-05 23:46:12 | 44.10072 | 22.92475 | 132° | 117km/h | 10781m | 4.9m/s | -46.6°C | 24.9% | 0hPa | 0V | 00:00:00 | 00:00:00 | 00:00:00 | |
| LZ4TU-5 | 2026-09-05 23:46:07 | 44.10160 | 22.92336 | 132° | 95km/h | 10754m | 3.1m/s | -46.3°C | 24.7% | 0hPa | 0V | 00:00:00 | 00:00:00 | 00:00:00 | |
| LZ4TU-5 | 2026-09-05 23:44:40 | 44.11759 | 22.89917 | 133° | 71km/h | 10309m | 5.0m/s | -42.5°C | 20.7% | 0hPa | 0V | 00:00:00 | 00:00:00 | 00:00:00 | |
| LZ4TU-5 | 2026-09-05 23:44:35 | 44.11837 | 22.89760 | 143° | 100km/h | 10274m | 7.0m/s | -42.2°C | 20.2% | 0hPa | 0V | 00:00:00 | 00:00:00 | 00:00:00 | |
| LZ4TU-5 | 2026-09-05 23:43:11 | 44.13155 | 22.87486 | 132° | 97km/h | 9813m | 4.6m/s | -38.0°C | 17.3% | 0hPa | 0V | 00:00:00 | 00:00:00 | 00:00:00 | |
| LZ4TU-5 | 2026-09-05 23:43:06 | 44.13223 | 22.87334 | 133° | 93km/h | 9788m | 6.7m/s | -37.8°C | 17.2% | 0hPa | 0V | 00:00:00 | 00:00:00 | 00:00:00 | |
| LZ4TU-5 | 2026-09-05 23:41:39 | 44.14270 | 22.85088 | 122° | 91km/h | 9323m | 7.4m/s | -34.1°C | 17.1% | 0hPa | 0V | 00:00:00 | 00:00:00 | 00:00:00 | |
| LZ4TU-5 | 2026-09-05 23:41:34 | 44.14323 | 22.84984 | 130° | 66km/h | 9300m | 3.3m/s | -33.8°C | 16.8% | 0hPa | 0V | 00:00:00 | 00:00:00 | 00:00:00 | |
| LZ4TU-5 | 2026-09-05 23:40:12 | 44.15010 | 22.82810 | 123° | 58km/h | 8799m | 5.9m/s | -29.2°C | 13.4% | 0hPa | 0V | 00:00:00 | 00:00:00 | 00:00:00 | |
| LZ4TU-5 | 2026-09-05 23:40:09 | 44.15039 | 22.82697 | 107° | 115km/h | 8776m | 3.4m/s | -29.0°C | 13.4% | 0hPa | 0V | 00:00:00 | 00:00:00 | 00:00:00 | |
| LZ4TU-5 | 2026-09-05 23:38:49 | 44.15681 | 22.80331 | 108° | 95km/h | 8308m | 2.8m/s | -25.9°C | 19.2% | 0hPa | 0V | 00:00:00 | 00:00:00 | 00:00:00 | |
| LZ4TU-5 | 2026-09-05 23:38:45 | 44.15710 | 22.80238 | 125° | 75km/h | 8287m | 5.4m/s | -25.9°C | 0% | 0hPa | 0V | 00:00:00 | 00:00:00 | 00:00:00 | |
| LZ4TU-5 | 2026-09-05 23:37:24 | 44.16459 | 22.78025 | 116° | 100km/h | 7818m | 6.3m/s | -22.2°C | 25.8% | 0hPa | 0V | 00:00:00 | 00:00:00 | 00:00:00 | |
| LZ4TU-5 | 2026-09-05 23:37:20 | 44.16507 | 22.77914 | 115° | 73km/h | 7796m | 5.9m/s | -22.0°C | 25.8% | 0hPa | 0V | 00:00:00 | 00:00:00 | 00:00:00 | |
| LZ4TU-5 | 2026-09-05 23:35:51 | 44.17402 | 22.75605 | 107° | 68km/h | 7304m | 6.4m/s | -19.3°C | 29.9% | 0hPa | 0V | 00:00:00 | 00:00:00 | 00:00:00 | |
| LZ4TU-5 | 2026-09-05 23:35:46 | 44.17422 | 22.75461 | 98° | 71km/h | 7276m | 5.1m/s | -19.0°C | 29.1% | 0hPa | 0V | 00:00:00 | 00:00:00 | 00:00:00 | |
| LZ4TU-5 | 2026-09-05 23:34:31 | 44.17991 | 22.73548 | 101° | 84km/h | 6842m | 8.9m/s | -16.3°C | 16.2% | 0hPa | 0V | 00:00:00 | 00:00:00 | 00:00:00 | |
| LZ4TU-5 | 2026-09-05 23:34:26 | 44.18013 | 22.73434 | 132° | 57km/h | 6810m | 6.1m/s | -16.2°C | 0% | 0hPa | 0V | 00:00:00 | 00:00:00 | 00:00:00 | |
| LZ4TU-5 | 2026-09-05 23:32:48 | 44.18507 | 22.71186 | 80° | 66km/h | 6207m | 6.4m/s | -13.3°C | 64.0% | 0hPa | 0V | 00:00:00 | 00:00:00 | 00:00:00 | |
| LZ4TU-5 | 2026-09-05 23:32:43 | 44.18516 | 22.71042 | 110° | 89km/h | 6192m | 6.7m/s | -13.0°C | 0% | 0hPa | 0V | 00:00:00 | 00:00:00 | 00:00:00 | |
| LZ4TU-5 | 2026-09-05 23:30:57 | 44.18878 | 22.68365 | 117° | 66km/h | 5549m | 8.1m/s | -9.8°C | 23.3% | 0hPa | 0V | 00:00:00 | 00:00:00 | 00:00:00 | |
| LZ4TU-5 | 2026-09-05 23:30:52 | 44.18901 | 22.68244 | 101° | 68km/h | 5520m | 7.4m/s | -9.6°C | 22.9% | 0hPa | 0V | 00:00:00 | 00:00:00 | 00:00:00 | |
| LZ4TU-5 | 2026-09-05 23:29:42 | 44.19070 | 22.66751 | 85° | 71km/h | 5116m | 7.7m/s | -6.9°C | 33.0% | 0hPa | 0V | 00:00:00 | 00:00:00 | 00:00:00 | |
| LZ4TU-5 | 2026-09-05 23:29:38 | 44.19067 | 22.66679 | 118° | 49km/h | 5090m | 6.8m/s | -6.7°C | 33.9% | 0hPa | 0V | 00:00:00 | 00:00:00 | 00:00:00 | |
| LZ4TU-5 | 2026-09-05 23:28:30 | 44.19322 | 22.65365 | 95° | 55km/h | 4705m | 6.9m/s | -4.4°C | 55.1% | 0hPa | 0V | 00:00:00 | 00:00:00 | 00:00:00 | |
| LZ4TU-5 | 2026-09-05 23:28:25 | 44.19318 | 22.65284 | 116° | 44km/h | 4675m | 6.4m/s | -4.2°C | 56.6% | 0hPa | 0V | 00:00:00 | 00:00:00 | 00:00:00 | |
| LZ4TU-5 | 2026-09-05 23:27:16 | 44.19593 | 22.63862 | 108° | 58km/h | 4243m | 7.8m/s | -1.6°C | 71.8% | 0hPa | 0V | 00:00:00 | 00:00:00 | 00:00:00 | |
| LZ4TU-5 | 2026-09-05 23:27:11 | 44.19606 | 22.63792 | 123° | 55km/h | 4216m | 5.1m/s | -1.4°C | 71.3% | 0hPa | 0V | 00:00:00 | 00:00:00 | 00:00:00 | |
| LZ4TU-5 | 2026-09-05 23:26:04 | 44.19876 | 22.62419 | 111° | 82km/h | 3809m | 8.2m/s | 1.1°C | 76.1% | 0hPa | 0V | 00:00:00 | 00:00:00 | 00:00:00 | |
| LZ4TU-5 | 2026-09-05 23:26:00 | 44.19917 | 22.62334 | 121° | 51km/h | 3804m | 7.1m/s | 1.2°C | 76.5% | 0hPa | 0V | 00:00:00 | 00:00:00 | 00:00:00 | |
| LZ4TU-5 | 2026-09-05 23:25:55 | 44.19925 | 22.62242 | 123° | 60km/h | 3773m | 6.8m/s | 1.5°C | 0% | 0hPa | 0V | 00:00:00 | 00:00:00 | 00:00:00 | |
| LZ4TU-5 | 2026-09-05 23:24:23 | 44.20101 | 22.60373 | 117° | 44km/h | 3262m | 6.7m/s | 5.3°C | 72.9% | 0hPa | 0V | 00:00:00 | 00:00:00 | 00:00:00 | |
| LZ4TU-5 | 2026-09-05 23:24:19 | 44.20089 | 22.60311 | 74° | 71km/h | 3242m | 4.6m/s | 5.5°C | 0% | 0hPa | 0V | 00:00:00 | 00:00:00 | 00:00:00 | |
| LZ4TU-5 | 2026-09-05 23:23:18 | 44.20075 | 22.59251 | 66° | 57km/h | 2865m | 6.4m/s | 7.9°C | 69.6% | 0hPa | 0V | 00:00:00 | 00:00:00 | 00:00:00 | |
| LZ4TU-5 | 2026-09-05 23:23:14 | 44.20065 | 22.59182 | 104° | 24km/h | 2843m | 6.6m/s | 8.1°C | 68.9% | 0hPa | 0V | 00:00:00 | 00:00:00 | 00:00:00 | |
| LZ4TU-5 | 2026-09-05 23:22:13 | 44.20161 | 22.58229 | 118° | 49km/h | 2501m | 6.8m/s | 11.2°C | 57.4% | 0hPa | 0V | 00:00:00 | 00:00:00 | 00:00:00 | |
| LZ4TU-5 | 2026-09-05 23:22:08 | 44.20173 | 22.58130 | 124° | 71km/h | 2464m | 7.0m/s | 11.6°C | 0% | 0hPa | 0V | 00:00:00 | 00:00:00 | 00:00:00 | |
| LZ4TU-5 | 2026-09-05 23:21:06 | 44.20580 | 22.57101 | 113° | 53km/h | 2090m | 5.9m/s | 14.5°C | 50.7% | 0hPa | 0V | 00:00:00 | 00:00:00 | 00:00:00 | |
| LZ4TU-5 | 2026-09-05 23:21:02 | 44.20597 | 22.57026 | 115° | 68km/h | 2067m | 6.3m/s | 14.8°C | 50.3% | 0hPa | 0V | 00:00:00 | 00:00:00 | 00:00:00 |